createdAt,value
2023-04-24T00:00:25.267Z,3.42
2023-04-24T00:02:57.915Z,1.42
2023-04-24T00:05:47.288Z,1.05
2023-04-24T00:08:14.544Z,2.75
2023-04-24T00:10:45.230Z,0.75
2023-04-24T00:13:24.043Z,3.28
2023-04-24T00:15:58.474Z,1.90
2023-04-24T00:18:40.987Z,3.97
2023-04-24T00:21:15.947Z,1.05
2023-04-24T00:23:46.877Z,1.75
2023-04-24T00:26:15.909Z,3.53
2023-04-24T00:28:44.137Z,2.97
2023-04-24T00:31:15.056Z,1.65
2023-04-24T00:33:45.828Z,2.83
2023-04-24T00:36:14.019Z,2.15
2023-04-24T00:38:43.790Z,1.80
2023-04-24T00:41:13.549Z,2.37
2023-04-24T00:43:41.412Z,2.50
2023-04-24T00:48:50.059Z,3.97
2023-04-24T00:51:22.283Z,2.22
2023-04-24T00:56:34.227Z,5.00
2023-04-24T00:59:02.143Z,2.30
2023-04-24T01:01:32.502Z,2.13
2023-04-24T01:04:00.950Z,2.55
2023-04-24T01:06:37.798Z,2.30
2023-04-24T01:09:06.315Z,4.40
2023-04-24T01:11:33.589Z,3.67
2023-04-24T01:14:03.410Z,3.17
2023-04-24T01:16:30.586Z,2.15
2023-04-24T01:21:41.677Z,2.20
2023-04-24T01:24:13.752Z,2.42
2023-04-24T01:26:41.143Z,2.88
2023-04-24T01:29:08.654Z,2.20
2023-04-24T01:31:37.808Z,2.92
2023-04-24T01:34:13.121Z,3.80
2023-04-24T01:36:41.716Z,1.85
2023-04-24T01:39:14.582Z,2.78
2023-04-24T01:41:41.980Z,1.92
2023-04-24T01:44:09.310Z,2.75
2023-04-24T01:46:38.203Z,1.23
2023-04-24T01:49:06.182Z,1.20
2023-04-24T01:51:33.135Z,2.65
2023-04-24T01:54:00.428Z,3.10
2023-04-24T01:56:31.923Z,2.55
2023-04-24T01:59:01.478Z,2.95
2023-04-24T02:01:36.286Z,2.50
2023-04-24T02:04:03.953Z,3.60
2023-04-24T02:06:33.448Z,1.40
2023-04-24T02:09:04.570Z,4.97
2023-04-24T02:11:32.992Z,3.53
2023-04-24T02:14:04.836Z,5.75
2023-04-24T02:16:34.685Z,2.65
2023-04-24T02:19:02.160Z,1.07
2023-04-24T02:21:32.112Z,1.73
2023-04-24T02:24:02.126Z,2.72
2023-04-24T02:26:34.833Z,2.33
2023-04-24T02:29:03.165Z,2.88
2023-04-24T02:31:30.062Z,1.92
2023-04-24T02:34:02.244Z,1.67
2023-04-24T02:36:36.806Z,2.60
2023-04-24T02:39:06.388Z,2.65
2023-04-24T02:41:35.781Z,3.60
2023-04-24T02:44:03.739Z,2.15
2023-04-24T02:46:38.266Z,2.85
2023-04-24T02:49:06.865Z,1.67
2023-04-24T02:54:16.689Z,1.27
2023-04-24T02:56:48.102Z,2.58
2023-04-24T02:59:24.999Z,1.65
2023-04-24T03:01:52.138Z,2.00
2023-04-24T03:04:21.992Z,2.15
2023-04-24T03:06:54.677Z,2.70
2023-04-24T03:09:23.087Z,2.20
2023-04-24T03:11:50.609Z,3.67
2023-04-24T03:14:18.110Z,2.88
2023-04-24T03:16:45.676Z,2.75
2023-04-24T03:19:12.995Z,3.72
2023-04-24T03:21:44.437Z,1.20
2023-04-24T03:24:18.868Z,1.58
2023-04-24T03:26:46.855Z,3.22
2023-04-24T03:29:16.358Z,1.13
2023-04-24T03:31:45.297Z,1.00
2023-04-24T03:34:12.231Z,3.33
2023-04-24T03:36:39.185Z,1.40
2023-04-24T03:39:11.729Z,2.90
2023-04-24T03:41:40.704Z,1.25
2023-04-24T03:44:28.205Z,2.20
2023-04-24T03:46:55.572Z,2.80
2023-04-24T03:49:23.189Z,3.00
2023-04-24T03:51:52.255Z,0.98
2023-04-24T03:54:24.402Z,3.05
2023-04-24T03:59:36.672Z,3.45
2023-04-24T04:02:04.460Z,2.10
2023-04-24T04:04:36.154Z,1.15
2023-04-24T04:07:12.185Z,2.45
2023-04-24T04:09:39.361Z,3.00
2023-04-24T04:12:06.578Z,1.48
2023-04-24T04:14:35.962Z,1.95
2023-04-24T04:17:03.401Z,2.15
2023-04-24T04:19:41.539Z,1.10
2023-04-24T04:22:10.210Z,1.15
2023-04-24T04:24:39.284Z,1.55
2023-04-24T04:27:13.616Z,2.33
2023-04-24T04:30:06.310Z,4.30
2023-04-24T04:32:44.707Z,1.58
2023-04-24T04:35:12.039Z,2.00
2023-04-24T04:37:42.298Z,2.42
2023-04-24T04:42:59.183Z,2.10
2023-04-24T04:45:37.342Z,2.55
2023-04-24T04:53:42.732Z,5.20
2023-04-24T04:58:58.472Z,2.88
2023-04-24T05:01:29.512Z,1.50
2023-04-24T05:03:57.642Z,3.10
2023-04-24T05:07:33.484Z,3.92
2023-04-24T05:10:06.036Z,3.45
2023-04-24T05:12:33.153Z,2.55
2023-04-24T05:15:09.429Z,2.60
2023-04-24T05:17:46.303Z,5.30
2023-04-24T05:20:31.372Z,3.42
2023-04-24T05:23:13.167Z,2.70
2023-04-24T05:25:56.833Z,3.47
2023-04-24T05:28:24.100Z,4.65
2023-04-24T05:30:59.174Z,3.03
2023-04-24T05:33:29.976Z,5.78
2023-04-24T05:35:58.093Z,3.45
2023-04-24T05:38:27.889Z,2.92
2023-04-24T05:40:58.912Z,4.15
2023-04-24T05:43:31.739Z,6.32
2023-04-24T05:51:55.508Z,3.47
2023-04-24T05:54:22.722Z,3.53
2023-04-24T05:56:55.736Z,5.75
2023-04-24T05:59:30.836Z,3.65
2023-04-24T06:02:11.163Z,4.03
2023-04-24T06:04:56.378Z,3.42
2023-04-24T06:07:27.976Z,3.50
2023-04-24T06:09:59.255Z,4.80
2023-04-24T06:15:35.167Z,4.53
2023-04-24T06:18:10.972Z,6.22
2023-04-24T06:20:45.110Z,5.13
2023-04-24T06:23:44.191Z,2.95
2023-04-24T06:26:34.237Z,3.75
2023-04-24T06:31:51.941Z,3.75
2023-04-24T06:40:42.941Z,6.80
2023-04-24T06:43:38.239Z,4.20
2023-04-24T06:46:14.494Z,5.13
2023-04-24T06:52:03.074Z,3.50
2023-04-24T06:57:08.148Z,3.95
2023-04-24T06:59:41.500Z,4.68
2023-04-24T07:05:14.082Z,3.97
2023-04-24T07:07:59.025Z,3.97
2023-04-24T07:19:02.805Z,3.50
2023-04-24T07:37:43.173Z,4.38
2023-04-24T07:40:23.501Z,3.65
2023-04-24T07:54:26.084Z,3.45
2023-04-24T07:59:43.079Z,3.72
2023-04-24T08:02:20.483Z,5.55
2023-04-24T08:05:01.120Z,5.65
2023-04-24T08:13:13.881Z,4.03
2023-04-24T08:15:53.699Z,3.95
2023-04-24T08:24:22.215Z,4.05
2023-04-24T08:26:58.447Z,7.22
2023-04-24T08:29:29.540Z,3.45
2023-04-24T08:35:20.112Z,2.95
2023-04-24T08:38:54.250Z,3.42
2023-04-24T08:44:21.320Z,5.45
2023-04-24T08:47:04.654Z,6.10
2023-04-24T08:52:18.213Z,6.55
2023-04-24T08:55:07.799Z,4.28
2023-04-24T08:57:52.987Z,5.82
2023-04-24T09:00:35.666Z,4.05
2023-04-24T09:11:43.750Z,3.30
2023-04-24T10:12:00.427Z,4.50
2023-04-24T10:20:20.485Z,2.53
2023-04-24T10:25:48.632Z,2.45
2023-04-24T10:28:26.904Z,4.97
2023-04-24T10:31:05.544Z,3.80
2023-04-24T10:33:39.108Z,3.33
2023-04-24T10:38:54.204Z,5.15
2023-04-24T10:41:32.193Z,4.83
2023-04-24T10:47:04.003Z,5.85
2023-04-24T10:49:50.884Z,4.55
2023-04-24T10:52:20.924Z,4.65
2023-04-24T10:54:51.878Z,3.88
2023-04-24T10:57:37.972Z,6.93
2023-04-24T11:00:24.338Z,3.53
2023-04-24T11:06:28.920Z,3.53
2023-04-24T11:09:17.912Z,4.03
2023-04-24T11:41:36.857Z,2.50
2023-04-24T12:11:41.004Z,4.22
2023-04-24T12:19:56.513Z,3.10
2023-04-24T12:22:31.643Z,5.57
2023-04-24T12:31:01.716Z,4.05
2023-04-24T12:33:30.544Z,5.10
2023-04-24T12:38:52.812Z,3.45
2023-04-24T12:41:25.103Z,4.07
2023-04-24T12:44:02.709Z,3.53
2023-04-24T12:46:33.143Z,5.35
2023-04-24T12:49:28.984Z,5.30
2023-04-24T12:52:03.114Z,5.47
2023-04-24T13:09:52.108Z,5.85
2023-04-24T13:12:41.684Z,5.32
2023-04-24T13:23:47.314Z,6.35
2023-04-24T13:29:27.080Z,4.97
2023-04-24T13:35:22.621Z,5.43
2023-04-24T13:49:29.337Z,6.40
2023-04-24T13:55:18.573Z,4.38
2023-04-24T14:00:50.398Z,5.55
2023-04-24T14:06:13.277Z,4.82
2023-04-24T14:08:44.772Z,6.68
2023-04-24T14:11:20.418Z,4.35
2023-04-24T14:14:01.319Z,4.63
2023-04-24T14:16:31.845Z,4.05
2023-04-24T14:21:32.634Z,4.93
2023-04-24T14:26:44.098Z,6.35
2023-04-24T14:29:17.195Z,6.28
2023-04-24T14:31:48.752Z,5.03
2023-04-24T14:34:23.056Z,6.10
2023-04-24T14:39:36.661Z,4.75
2023-04-24T14:42:14.379Z,5.20
2023-04-24T14:44:53.413Z,7.03
2023-04-24T14:47:24.441Z,4.07
2023-04-24T14:49:52.135Z,6.45
2023-04-24T14:52:32.247Z,5.97
2023-04-24T14:55:12.485Z,6.78
2023-04-24T15:00:57.922Z,6.68
2023-04-24T15:04:06.353Z,6.05
2023-04-24T15:09:26.981Z,7.40
2023-04-24T15:11:55.243Z,4.85
2023-04-24T15:14:23.177Z,4.82
2023-04-24T15:19:56.205Z,5.10
2023-04-24T15:22:28.405Z,4.70
2023-04-24T15:41:57.652Z,5.30
2023-04-24T15:44:32.364Z,4.47
2023-04-24T15:47:06.953Z,6.20
2023-04-24T15:49:36.050Z,6.97
2023-04-24T15:54:55.203Z,6.45
2023-04-24T15:57:24.927Z,6.97
2023-04-24T16:02:43.716Z,7.72
2023-04-24T16:07:56.837Z,6.10
2023-04-24T16:16:00.363Z,5.97
2023-04-24T16:18:33.628Z,5.47
2023-04-24T16:21:21.042Z,6.22
2023-04-24T16:23:52.521Z,7.07
2023-04-24T16:32:19.637Z,6.72
2023-04-24T16:37:51.101Z,7.38
2023-04-24T16:40:27.311Z,6.65
2023-04-24T16:43:08.053Z,7.18
2023-04-24T16:45:39.925Z,6.05
2023-04-24T16:48:20.144Z,6.82
2023-04-24T16:50:48.348Z,6.10
2023-04-24T16:53:29.215Z,7.65
2023-04-24T16:55:58.743Z,4.95
2023-04-24T17:01:17.021Z,6.55
2023-04-24T17:06:45.518Z,6.97
2023-04-24T17:09:25.645Z,5.50
2023-04-24T17:12:04.501Z,7.57
2023-04-24T17:14:39.707Z,6.70
2023-04-24T17:17:20.981Z,8.10
2023-04-24T17:22:39.510Z,5.95
2023-04-24T17:25:30.673Z,7.45
2023-04-24T17:28:07.031Z,7.72
2023-04-24T17:36:44.702Z,6.95
2023-04-24T19:36:52.736Z,6.35
2023-04-24T19:47:45.311Z,6.85
2023-04-24T19:50:44.990Z,6.90
2023-04-24T19:53:37.461Z,6.10
2023-04-24T20:08:15.339Z,5.20
2023-04-24T20:11:26.537Z,5.43
2023-04-24T20:40:00.412Z,6.35
2023-04-24T20:42:39.150Z,5.50
2023-04-24T20:45:38.803Z,7.20
2023-04-24T20:51:27.116Z,7.43
2023-04-24T20:53:55.637Z,8.20
2023-04-24T21:04:46.652Z,9.13
2023-04-24T21:10:08.088Z,8.30
2023-04-24T21:12:36.607Z,6.85
2023-04-24T21:15:24.095Z,9.10
2023-04-24T21:21:46.300Z,9.77
2023-04-24T21:24:13.778Z,8.80
2023-04-24T21:29:22.303Z,11.05
2023-04-24T21:31:52.242Z,9.52
2023-04-24T21:34:30.829Z,11.02
2023-04-24T21:37:08.380Z,11.13
2023-04-24T21:39:53.357Z,10.77
2023-04-24T21:42:23.868Z,10.25
2023-04-24T21:44:57.779Z,12.07
2023-04-24T21:50:19.215Z,11.63
2023-04-24T21:52:51.338Z,11.65
2023-04-24T21:55:31.447Z,10.50
2023-04-24T21:58:09.024Z,10.68
2023-04-24T22:00:38.615Z,12.93
2023-04-24T22:03:20.988Z,11.00
2023-04-24T22:05:51.433Z,13.40
2023-04-24T22:08:20.429Z,12.45
2023-04-24T22:10:57.972Z,11.32
2023-04-24T22:13:28.197Z,10.73
2023-04-24T22:15:56.875Z,12.65
2023-04-24T22:18:53.981Z,11.13
2023-04-24T22:21:25.096Z,11.80
2023-04-24T22:23:55.506Z,13.18
2023-04-24T22:29:13.380Z,11.30
2023-04-24T22:31:49.479Z,13.65
2023-04-24T22:37:13.678Z,14.43
2023-04-24T22:39:40.448Z,17.05
2023-04-24T22:42:07.209Z,16.15
2023-04-24T22:44:34.679Z,19.58
2023-04-24T22:47:10.230Z,17.15
2023-04-24T22:49:48.546Z,18.42
2023-04-24T22:52:20.561Z,18.63
2023-04-24T22:55:01.032Z,18.20
2023-04-24T22:57:37.699Z,18.03
2023-04-24T23:00:12.405Z,18.58
2023-04-24T23:02:52.905Z,19.73
2023-04-24T23:05:26.597Z,18.73
2023-04-24T23:07:54.632Z,19.20
2023-04-24T23:10:39.245Z,17.85
2023-04-24T23:13:09.868Z,18.35
2023-04-24T23:15:39.813Z,17.50
2023-04-24T23:18:12.940Z,19.10
2023-04-24T23:20:48.057Z,16.50
2023-04-24T23:23:22.857Z,16.13
2023-04-24T23:25:55.003Z,17.08
2023-04-24T23:31:14.557Z,16.60
2023-04-24T23:34:08.702Z,16.77
2023-04-24T23:42:24.521Z,16.75
2023-04-24T23:45:00.570Z,12.05
2023-04-24T23:50:12.872Z,16.27
2023-04-24T23:52:46.583Z,14.98
2023-04-24T23:58:05.843Z,17.20
